Time;durP1;ratioP1;P1;durP2;ratioP2;P2;SDS_P1;SDS_P2;PMS_P1;PMS_P2;Temp;Humidity;BMP_temperature;BMP_pressure;BME280_temperature;BME280_humidity;BME280_pressure;Samples;Min_cycle;Max_cycle;Signal;HPM_P1;HPM_P2
2019/07/27 00:02:26;;;;;;;8.1;3.2;;;;;;;22.37;57.99219;929.8226;;;;
2019/07/27 00:05:43;;;;;;;4.9;3.3;;;;;;;22.33;57.21387;929.8195;;;;
2019/07/27 00:08:59;;;;;;;7.6;3.6;;;;;;;22.19;58.46094;929.7769;;;;
2019/07/27 00:12:15;;;;;;;8.9;3.9;;;;;;;22.22;58.92383;929.7332;;;;
2019/07/27 00:15:37;;;;;;;4.5;3.1;;;;;;;22.15;58.99707;929.7946;;;;
2019/07/27 00:18:51;;;;;;;3.7;3.4;;;;;;;22.01;58.5791;929.7905;;;;
2019/07/27 00:22:07;;;;;;;3.8;3.4;;;;;;;21.96;58.57227;929.8156;;;;
2019/07/27 00:25:37;;;;;;;4;3.2;;;;;;;21.9;58.09473;929.8081;;;;
2019/07/27 00:29:00;;;;;;;3.9;3.3;;;;;;;22.12;58.38281;929.7992;;;;
2019/07/27 00:32:17;;;;;;;4.6;3.3;;;;;;;21.65;60.05566;929.8881;;;;
2019/07/27 00:35:41;;;;;;;5.4;2.9;;;;;;;21.73;59.3623;929.7947;;;;
2019/07/27 00:38:56;;;;;;;3.5;3.2;;;;;;;21.69;59.94238;929.7137;;;;
2019/07/27 00:42:16;;;;;;;5.9;3.2;;;;;;;21.49;60.59375;929.7099;;;;
2019/07/27 00:45:33;;;;;;;4.1;3.1;;;;;;;21.45;61.36133;929.616;;;;
2019/07/27 00:48:50;;;;;;;3.3;3;;;;;;;21.4;61.00293;929.6847;;;;
2019/07/27 00:52:06;;;;;;;4.5;3.3;;;;;;;21.36;60.65918;929.7203;;;;
2019/07/27 00:55:22;;;;;;;3.2;2.9;;;;;;;21.25;60.33984;929.629;;;;
2019/07/27 00:58:39;;;;;;;3.2;2.9;;;;;;;21.31;60.3584;929.6597;;;;
2019/07/27 01:01:56;;;;;;;4.8;3.3;;;;;;;21.28;61.98145;929.7421;;;;
2019/07/27 01:05:10;;;;;;;4;3.3;;;;;;;21.15;61.97461;929.6666;;;;
2019/07/27 01:08:25;;;;;;;5.6;3.4;;;;;;;21.12;62.29785;929.6401;;;;
2019/07/27 01:11:48;;;;;;;4;3.3;;;;;;;21;62.29297;929.7917;;;;
2019/07/27 01:15:06;;;;;;;4.1;3.1;;;;;;;20.8;62.80273;929.7642;;;;
2019/07/27 01:18:27;;;;;;;4.9;3.3;;;;;;;20.58;64.18457;929.7761;;;;
2019/07/27 01:21:47;;;;;;;4.4;3.4;;;;;;;20.57;63.82129;929.7773;;;;
2019/07/27 01:25:02;;;;;;;5.2;3.4;;;;;;;20.58;63.75391;929.7711;;;;
2019/07/27 01:28:20;;;;;;;5.2;3.4;;;;;;;20.6;63.89648;929.7856;;;;
2019/07/27 01:31:45;;;;;;;4.2;3;;;;;;;20.76;63.05371;929.793;;;;
2019/07/27 01:35:13;;;;;;;5;3.3;;;;;;;20.73;62.57031;929.8663;;;;
2019/07/27 01:38:31;;;;;;;6.1;3.4;;;;;;;20.79;62.05371;929.8481;;;;
2019/07/27 01:41:47;;;;;;;5.6;3.4;;;;;;;20.74;62.2334;929.8173;;;;
2019/07/27 01:45:06;;;;;;;4.8;3.5;;;;;;;20.66;62.5957;929.8506;;;;
2019/07/27 01:48:31;;;;;;;4;3.2;;;;;;;20.95;62.1582;929.9022;;;;
2019/07/27 01:51:46;;;;;;;3.6;3.3;;;;;;;20.85;62.38867;929.8405;;;;
2019/07/27 01:55:04;;;;;;;4.7;3.2;;;;;;;20.77;62.78711;929.7947;;;;
2019/07/27 01:58:20;;;;;;;5.3;3.4;;;;;;;20.72;62.97852;929.7341;;;;
2019/07/27 02:01:36;;;;;;;4.9;3.6;;;;;;;20.65;63.10938;929.5968;;;;
2019/07/27 02:04:57;;;;;;;4.9;3.3;;;;;;;20.66;63.08789;929.6733;;;;
2019/07/27 02:08:17;;;;;;;4.9;3.4;;;;;;;20.48;63.1084;929.6654;;;;
2019/07/27 02:11:40;;;;;;;5.2;3.4;;;;;;;20.29;63.72363;929.6841;;;;
2019/07/27 02:14:57;;;;;;;5;3.2;;;;;;;20.35;63.52246;929.662;;;;
2019/07/27 02:18:17;;;;;;;3.4;3.1;;;;;;;20.04;63.9209;929.6561;;;;
2019/07/27 02:21:30;;;;;;;4.2;3.3;;;;;;;20.07;64.08789;929.618;;;;
2019/07/27 02:24:45;;;;;;;5.1;3.4;;;;;;;20.17;63.40234;929.6111;;;;
2019/07/27 02:28:00;;;;;;;5.5;3.5;;;;;;;20.29;64.77344;929.6373;;;;
2019/07/27 02:31:22;;;;;;;4.8;3.6;;;;;;;20.07;64.99707;929.614;;;;
2019/07/27 02:34:38;;;;;;;5;3.9;;;;;;;19.96;64.99414;929.504;;;;
2019/07/27 02:37:58;;;;;;;4.5;3.5;;;;;;;20.1;64.57129;929.5695;;;;
2019/07/27 02:41:14;;;;;;;4.9;3.5;;;;;;;20.2;64.46973;929.5072;;;;
2019/07/27 02:44:32;;;;;;;4.8;3.5;;;;;;;20.27;64.36328;929.4844;;;;
2019/07/27 02:47:48;;;;;;;4.6;3.5;;;;;;;20.3;64.15723;929.4242;;;;
2019/07/27 02:51:05;;;;;;;4;3.3;;;;;;;20.27;64.11621;929.4805;;;;
2019/07/27 02:54:24;;;;;;;4.1;3.3;;;;;;;20.26;63.91699;929.4348;;;;
2019/07/27 02:57:38;;;;;;;3.8;3.5;;;;;;;20.21;64.08496;929.4712;;;;
2019/07/27 03:00:52;;;;;;;3.7;3.2;;;;;;;20.22;64.23828;929.3926;;;;
2019/07/27 03:04:10;;;;;;;4.6;3.6;;;;;;;20.1;64.81641;929.4622;;;;
2019/07/27 03:07:25;;;;;;;4.7;3.5;;;;;;;20.11;65.47168;929.3008;;;;
2019/07/27 03:10:47;;;;;;;5.7;4;;;;;;;20.03;65.2959;929.3739;;;;
2019/07/27 03:14:08;;;;;;;5.7;3.5;;;;;;;19.62;65.43262;929.3209;;;;
2019/07/27 03:17:24;;;;;;;4.3;3.6;;;;;;;19.71;65.5625;929.3466;;;;
2019/07/27 03:20:45;;;;;;;5.2;3.6;;;;;;;19.84;65.63965;929.3499;;;;
2019/07/27 03:24:01;;;;;;;4.2;3.5;;;;;;;19.85;64.82617;929.3437;;;;
2019/07/27 03:27:20;;;;;;;3.8;3.4;;;;;;;19.88;64.94727;929.365;;;;
2019/07/27 03:30:37;;;;;;;4.7;3.8;;;;;;;19.82;65.5918;929.3819;;;;
2019/07/27 03:33:58;;;;;;;4.4;3.5;;;;;;;19.87;65.92676;929.3702;;;;
2019/07/27 03:37:17;;;;;;;6.1;3.8;;;;;;;19.93;65.59473;929.3713;;;;
2019/07/27 03:40:33;;;;;;;5.8;3.6;;;;;;;19.82;65.69531;929.3867;;;;
2019/07/27 03:43:51;;;;;;;4.4;3.4;;;;;;;19.87;65.70508;929.3959;;;;
2019/07/27 03:47:06;;;;;;;3.8;3.5;;;;;;;19.78;65.80664;929.3574;;;;
2019/07/27 03:50:26;;;;;;;5;3.5;;;;;;;19.83;65.4873;929.36;;;;
2019/07/27 03:53:41;;;;;;;4.6;3.5;;;;;;;19.81;65.50781;929.3063;;;;
2019/07/27 03:56:58;;;;;;;4.8;3.6;;;;;;;19.94;65.09473;929.2966;;;;
2019/07/27 04:00:17;;;;;;;4;3.6;;;;;;;19.98;65.08984;929.242;;;;
2019/07/27 04:07:08;;;;;;;4.7;3.4;;;;;;;19.99;64.6377;929.3095;;;;
2019/07/27 04:10:21;;;;;;;3.7;3.1;;;;;;;20.15;65.19629;929.2653;;;;
2019/07/27 04:13:37;;;;;;;3.7;3.3;;;;;;;20.11;65.23633;929.2761;;;;
2019/07/27 04:16:53;;;;;;;4.3;3.3;;;;;;;20.19;65.78613;929.3025;;;;
2019/07/27 04:20:08;;;;;;;6.5;3.5;;;;;;;20.26;64.80371;929.3275;;;;
2019/07/27 04:23:27;;;;;;;4.7;3.3;;;;;;;20.28;65.72949;929.3201;;;;
2019/07/27 04:26:43;;;;;;;3.6;3.3;;;;;;;20.36;63.19727;929.2897;;;;
2019/07/27 04:29:57;;;;;;;5.4;3.3;;;;;;;20.55;63.87695;929.3705;;;;
2019/07/27 04:33:27;;;;;;;4.7;3.3;;;;;;;20.75;64.57129;929.4537;;;;
2019/07/27 04:36:43;;;;;;;6.2;3.7;;;;;;;20.95;60.66113;929.3633;;;;
2019/07/27 04:40:02;;;;;;;6.4;3.9;;;;;;;21.03;59.31445;929.4506;;;;
2019/07/27 04:43:18;;;;;;;7.6;3.5;;;;;;;21.08;61.60254;929.4166;;;;
2019/07/27 04:46:36;;;;;;;4.9;3.7;;;;;;;20.95;62.59082;929.4489;;;;
2019/07/27 04:49:50;;;;;;;6.3;4;;;;;;;20.93;63.05469;929.4523;;;;
2019/07/27 04:53:12;;;;;;;4;3.3;;;;;;;20.94;63.9209;929.4422;;;;
2019/07/27 04:56:26;;;;;;;5.7;3.5;;;;;;;20.68;64.09473;929.4679;;;;
2019/07/27 04:59:42;;;;;;;6.6;3.4;;;;;;;20.78;64.13184;929.462;;;;
2019/07/27 05:03:03;;;;;;;5.3;3.4;;;;;;;20.92;63.8252;929.3809;;;;
2019/07/27 05:06:21;;;;;;;6.5;3.4;;;;;;;20.88;65.26855;929.3995;;;;
2019/07/27 05:09:35;;;;;;;4.3;3.5;;;;;;;20.81;64.80273;929.3359;;;;
2019/07/27 05:12:49;;;;;;;6.3;3.8;;;;;;;21.03;64.12109;929.334;;;;
2019/07/27 05:16:08;;;;;;;7;3.7;;;;;;;21.18;63.85156;929.307;;;;
2019/07/27 05:19:24;;;;;;;6.2;3.8;;;;;;;21.2;63.88867;929.3994;;;;
2019/07/27 05:22:37;;;;;;;5.6;3.7;;;;;;;21.38;60.4502;929.407;;;;
2019/07/27 05:25:51;;;;;;;9.3;3.8;;;;;;;21.84;58.45117;929.3494;;;;
2019/07/27 05:29:07;;;;;;;6.3;3.7;;;;;;;22.37;56.63281;929.3113;;;;
2019/07/27 05:32:31;;;;;;;5.4;3.5;;;;;;;22.3;61.10352;929.2402;;;;
2019/07/27 05:35:54;;;;;;;7.2;3.7;;;;;;;22.04;61.0459;929.2325;;;;
2019/07/27 05:39:09;;;;;;;5.2;3.6;;;;;;;22.86;57.18848;929.1575;;;;
2019/07/27 05:42:24;;;;;;;4.8;3.7;;;;;;;23.47;55.9502;929.1647;;;;
2019/07/27 05:45:46;;;;;;;5.1;3.4;;;;;;;25.26;50.40137;929.1887;;;;
2019/07/27 05:49:00;;;;;;;35.5;5.2;;;;;;;26.38;47.8877;929.1702;;;;
2019/07/27 05:52:16;;;;;;;10.3;3.3;;;;;;;26.8;43.59668;929.2152;;;;
2019/07/27 05:55:37;;;;;;;5.5;3.1;;;;;;;28.31;40.77246;929.2584;;;;
2019/07/27 05:58:54;;;;;;;6.6;3;;;;;;;28.44;40.24902;929.2916;;;;
2019/07/27 06:02:10;;;;;;;5.2;2.9;;;;;;;28.12;40.58789;929.2583;;;;
2019/07/27 06:05:32;;;;;;;12.1;3.2;;;;;;;28.87;39.60938;929.3024;;;;
2019/07/27 06:08:48;;;;;;;3.4;2.7;;;;;;;29.22;40.05664;929.255;;;;
2019/07/27 06:12:05;;;;;;;3;2.7;;;;;;;29.34;39.73242;929.1554;;;;
2019/07/27 06:15:24;;;;;;;4.2;2.7;;;;;;;30.55;35.82617;929.1437;;;;
2019/07/27 06:18:39;;;;;;;5.4;2.6;;;;;;;29.7;38.83496;929.1197;;;;
2019/07/27 06:21:56;;;;;;;5.2;2.7;;;;;;;30.54;36.66211;929.0887;;;;
2019/07/27 06:25:16;;;;;;;5.2;2.7;;;;;;;32.03;32.80371;929.0311;;;;
2019/07/27 06:28:29;;;;;;;3;2.7;;;;;;;31.48;35.9834;928.9666;;;;
2019/07/27 06:31:47;;;;;;;3.8;2.4;;;;;;;31.7;35.11426;928.9949;;;;
2019/07/27 06:35:02;;;;;;;3.1;2.8;;;;;;;31.94;34.5332;928.9794;;;;
2019/07/27 06:38:18;;;;;;;5.7;2.6;;;;;;;31.71;35.97852;928.9656;;;;
2019/07/27 06:41:35;;;;;;;4.4;2.5;;;;;;;31.57;35.17676;928.9092;;;;
2019/07/27 06:44:53;;;;;;;4.8;2.6;;;;;;;32.24;34.37695;928.9291;;;;
2019/07/27 06:48:09;;;;;;;3.3;2.6;;;;;;;32.83;33.1377;928.9832;;;;
2019/07/27 06:51:34;;;;;;;2.9;2.5;;;;;;;31.69;37.96387;928.8384;;;;
2019/07/27 06:54:56;;;;;;;4.7;2.5;;;;;;;32.9;35.00293;928.8206;;;;
2019/07/27 06:58:20;;;;;;;3.9;2.5;;;;;;;33.33;34.53223;928.8317;;;;
2019/07/27 07:01:43;;;;;;;4.6;2.5;;;;;;;34.05;32.35938;928.8663;;;;
2019/07/27 07:05:00;;;;;;;3.8;2.5;;;;;;;33.35;34.54492;928.7742;;;;
2019/07/27 07:08:16;;;;;;;5.1;2.5;;;;;;;33.23;32.44434;928.817;;;;
2019/07/27 07:11:42;;;;;;;5.2;2.6;;;;;;;33.65;34.02734;928.7974;;;;
2019/07/27 07:29:42;;;;;;;5.7;2.8;;;;;;;31.25;40.28418;928.6475;;;;
2019/07/27 07:32:59;;;;;;;4;2.9;;;;;;;31.37;38.65527;928.5449;;;;
2019/07/27 07:36:17;;;;;;;5.5;2.8;;;;;;;31.2;40.05273;928.5508;;;;
2019/07/27 07:39:36;;;;;;;3.8;2.7;;;;;;;31.43;39.27148;928.4709;;;;
2019/07/27 07:42:50;;;;;;;3.9;2.6;;;;;;;31.93;37.87598;928.4445;;;;
2019/07/27 07:45:49;;;;;;;5.3;2.7;;;;;;;32.61;37.66895;928.4689;;;;
2019/07/27 07:49:08;;;;;;;4.7;2.4;;;;;;;33.17;37.07813;928.5256;;;;
2019/07/27 07:52:25;;;;;;;6.4;2.5;;;;;;;33.67;35.30371;928.4717;;;;
2019/07/27 07:55:46;;;;;;;6.3;2.7;;;;;;;33.31;36.09277;928.4966;;;;
2019/07/27 07:59:03;;;;;;;5.8;2.6;;;;;;;33.61;36.26074;928.4458;;;;
2019/07/27 08:02:17;;;;;;;4.4;2.4;;;;;;;33.53;37.46875;928.3728;;;;
2019/07/27 08:05:32;;;;;;;3.5;2.4;;;;;;;34.22;34.99609;928.4124;;;;
2019/07/27 08:08:51;;;;;;;5.3;2.7;;;;;;;33.93;35.47949;928.4207;;;;
2019/07/27 08:12:07;;;;;;;6.8;2.4;;;;;;;34.78;34.70215;928.3411;;;;
2019/07/27 08:15:22;;;;;;;5.6;2.2;;;;;;;34.08;36.99707;928.3179;;;;
2019/07/27 08:18:36;;;;;;;5.1;2.3;;;;;;;34.19;35.19922;928.2997;;;;
2019/07/27 08:21:57;;;;;;;3.4;2.4;;;;;;;33.09;37.78125;928.2374;;;;
2019/07/27 08:25:14;;;;;;;5.6;2.4;;;;;;;33.33;37.99316;928.2164;;;;
2019/07/27 08:28:31;;;;;;;5.1;2.3;;;;;;;33.36;38.22461;928.2048;;;;
2019/07/27 08:31:47;;;;;;;3.3;2.2;;;;;;;34.25;33.9873;928.1567;;;;
2019/07/27 08:35:01;;;;;;;3.6;2.3;;;;;;;34.18;35.18652;928.1783;;;;
2019/07/27 08:38:17;;;;;;;6.4;2.4;;;;;;;34.53;34.50195;927.9966;;;;
2019/07/27 08:41:31;;;;;;;4.9;2.3;;;;;;;33.67;36.27637;928.0769;;;;
2019/07/27 08:44:51;;;;;;;7.5;2.3;;;;;;;32.99;36.47559;927.9536;;;;
2019/07/27 08:48:09;;;;;;;2.6;2.3;;;;;;;32.02;38.72363;927.873;;;;
2019/07/27 08:51:37;;;;;;;3.2;2.4;;;;;;;31.9;39.51563;927.8669;;;;
2019/07/27 08:54:56;;;;;;;8.8;2.8;;;;;;;31.08;42.87598;927.8295;;;;
2019/07/27 08:58:14;;;;;;;3.1;2.3;;;;;;;30.61;43.40527;927.8701;;;;
2019/07/27 09:01:28;;;;;;;5.2;2.4;;;;;;;30.49;42.69043;927.8445;;;;
2019/07/27 09:04:43;;;;;;;5.7;2.7;;;;;;;30.31;43.6875;927.7875;;;;
2019/07/27 09:07:59;;;;;;;5.2;2.7;;;;;;;30.81;44.70313;927.7059;;;;
2019/07/27 09:11:22;;;;;;;3.9;2.6;;;;;;;31.18;42.69531;927.6905;;;;
2019/07/27 09:14:36;;;;;;;5.1;2.6;;;;;;;31.31;42.89844;927.639;;;;
2019/07/27 09:17:53;;;;;;;3.8;2.6;;;;;;;31.26;41.09863;927.6721;;;;
2019/07/27 09:21:06;;;;;;;4.1;2.5;;;;;;;30.87;43.9082;927.6325;;;;
2019/07/27 09:24:25;;;;;;;6;2.8;;;;;;;31.01;44.00586;927.5833;;;;
2019/07/27 09:27:41;;;;;;;4.4;2.4;;;;;;;31.19;44.15527;927.514;;;;
2019/07/27 09:30:54;;;;;;;5.2;2.6;;;;;;;31.6;42.50684;927.4824;;;;
2019/07/27 09:34:10;;;;;;;3.5;2.7;;;;;;;31.83;41.56934;927.5416;;;;
2019/07/27 09:37:28;;;;;;;4;2.7;;;;;;;32.05;41.2666;927.4508;;;;
2019/07/27 09:40:47;;;;;;;4.7;2.6;;;;;;;32;40.37598;927.3542;;;;
2019/07/27 09:44:05;;;;;;;6.4;2.6;;;;;;;32.02;41.19238;927.3683;;;;
2019/07/27 09:47:21;;;;;;;7.6;2.6;;;;;;;31.95;39.93945;927.2858;;;;
2019/07/27 09:50:35;;;;;;;5.9;2.9;;;;;;;31.6;39.89648;927.2531;;;;
2019/07/27 09:53:56;;;;;;;6.8;2.6;;;;;;;31.27;42.23633;927.2137;;;;
2019/07/27 09:57:22;;;;;;;8.6;2.6;;;;;;;30.8;43.19629;927.1905;;;;
2019/07/27 10:00:36;;;;;;;4.8;2.6;;;;;;;30.72;43.99023;927.1172;;;;
2019/07/27 10:04:03;;;;;;;4.6;2.9;;;;;;;31.01;43.13379;927.0662;;;;
2019/07/27 10:07:21;;;;;;;3.3;2.3;;;;;;;31.43;41.40039;927.0505;;;;
2019/07/27 10:10:34;;;;;;;5;2.7;;;;;;;32.03;40.40234;927.024;;;;
2019/07/27 10:13:48;;;;;;;6.9;2.5;;;;;;;32.15;40.64063;927.0394;;;;
2019/07/27 10:17:06;;;;;;;4.3;2.5;;;;;;;32.17;39.4668;927.0139;;;;
2019/07/27 10:20:21;;;;;;;8.1;2.8;;;;;;;31.88;40.18457;927.0003;;;;
2019/07/27 10:23:35;;;;;;;4.4;2.7;;;;;;;31.99;40.10938;926.9844;;;;
2019/07/27 10:26:52;;;;;;;6.5;2.9;;;;;;;32.03;39.91016;926.9807;;;;
2019/07/27 10:30:06;;;;;;;3.8;2.5;;;;;;;32.17;38.42383;926.9084;;;;
2019/07/27 10:33:23;;;;;;;4.5;2.7;;;;;;;32.12;39.11523;926.8912;;;;
2019/07/27 10:36:37;;;;;;;3.9;2.4;;;;;;;32.78;38.01855;926.8616;;;;
2019/07/27 10:39:53;;;;;;;5.1;2.6;;;;;;;32.66;37.74609;926.6605;;;;
2019/07/27 10:43:14;;;;;;;3.2;2.2;;;;;;;33.21;37.20313;926.7642;;;;
2019/07/27 10:46:34;;;;;;;6.9;2.4;;;;;;;32.62;37.08203;926.7697;;;;
2019/07/27 10:49:48;;;;;;;7.5;2.4;;;;;;;32.26;36.63281;926.6531;;;;
2019/07/27 10:53:01;;;;;;;4.2;2.5;;;;;;;32.21;37.24023;926.5566;;;;
2019/07/27 10:56:15;;;;;;;3.6;2.3;;;;;;;32.64;35.90723;926.6559;;;;
2019/07/27 10:59:29;;;;;;;3.7;2.4;;;;;;;32.97;36.4502;926.6238;;;;
2019/07/27 11:02:43;;;;;;;3.2;2.1;;;;;;;33.79;34.80762;926.5002;;;;
2019/07/27 11:06:05;;;;;;;4.2;2.4;;;;;;;34.3;35.18359;926.4208;;;;
2019/07/27 11:09:19;;;;;;;8;2.2;;;;;;;34.2;33.88672;926.3504;;;;
2019/07/27 11:12:33;;;;;;;7.6;2.4;;;;;;;34.13;34.78516;926.2894;;;;
2019/07/27 11:15:47;;;;;;;6;2.3;;;;;;;35.05;33.31055;926.26;;;;
2019/07/27 11:19:03;;;;;;;5.2;2.3;;;;;;;34.77;33.53125;926.3137;;;;
2019/07/27 11:22:28;;;;;;;4.1;2.2;;;;;;;34.45;33.05078;926.2811;;;;
2019/07/27 11:25:43;;;;;;;4.6;2.4;;;;;;;33.36;35.02637;926.2277;;;;
2019/07/27 11:29:00;;;;;;;3.8;2.4;;;;;;;32.83;36.47461;926.4249;;;;
2019/07/27 11:32:15;;;;;;;7.6;2.4;;;;;;;32.57;36.35742;926.3585;;;;
2019/07/27 11:35:33;;;;;;;3.3;2.3;;;;;;;31.54;37.17383;926.317;;;;
2019/07/27 11:38:51;;;;;;;6.9;2.4;;;;;;;31.34;39.01172;926.2036;;;;
2019/07/27 11:42:06;;;;;;;4.3;2.2;;;;;;;30.53;38.56055;926.0925;;;;
2019/07/27 11:45:19;;;;;;;5.6;2.5;;;;;;;31.11;38.41699;926.0997;;;;
2019/07/27 11:48:54;;;;;;;3.6;2.4;;;;;;;31.29;38.23047;926.0679;;;;
2019/07/27 11:52:10;;;;;;;3.8;2.2;;;;;;;31.34;38.13867;926.0008;;;;
2019/07/27 11:55:30;;;;;;;3.9;2.4;;;;;;;31.33;39.33398;925.972;;;;
2019/07/27 11:58:43;;;;;;;4.6;2.4;;;;;;;31.09;39.3252;925.937;;;;
2019/07/27 12:01:57;;;;;;;4.4;2.6;;;;;;;30.25;40.93555;926.0606;;;;
2019/07/27 12:05:14;;;;;;;5.2;2.6;;;;;;;29.83;39.44336;926.0736;;;;
2019/07/27 12:08:31;;;;;;;2.7;2.4;;;;;;;29.57;39.08496;926.0547;;;;
2019/07/27 12:11:50;;;;;;;2.2;2;;;;;;;29.03;37.39551;926.1512;;;;
2019/07/27 12:15:05;;;;;;;3.4;1.9;;;;;;;29.03;38.72949;926.1813;;;;
2019/07/27 12:18:24;;;;;;;3.8;2;;;;;;;28.28;39.9248;926.2206;;;;
2019/07/27 12:21:40;;;;;;;2.5;2.3;;;;;;;28.1;41.19336;926.2488;;;;
2019/07/27 12:24:54;;;;;;;2.8;2.1;;;;;;;27.44;41.29883;926.19;;;;
2019/07/27 12:28:10;;;;;;;6.3;1.9;;;;;;;27.31;42.55566;926.0041;;;;
2019/07/27 12:31:31;;;;;;;6;2.6;;;;;;;27.12;45.83203;925.9953;;;;
2019/07/27 12:34:47;;;;;;;3.8;2.6;;;;;;;26.98;46.75488;926.1895;;;;
2019/07/27 12:38:07;;;;;;;11;3.4;;;;;;;26.14;54.45117;926.5559;;;;
2019/07/27 12:41:25;;;;;;;10.2;3.6;;;;;;;25.23;57.22168;926.8953;;;;
2019/07/27 12:44:41;;;;;;;8.2;4.4;;;;;;;24.77;62.49414;927.2944;;;;
2019/07/27 12:48:01;;;;;;;14.5;6.6;;;;;;;24.11;65.28516;927.1575;;;;
2019/07/27 12:51:17;;;;;;;6.2;3.9;;;;;;;23.51;66.64453;927.1211;;;;
2019/07/27 12:54:35;;;;;;;25.9;6.5;;;;;;;22.99;69.25586;927.309;;;;
2019/07/27 12:57:49;;;;;;;10.7;4.2;;;;;;;22.2;65.3584;927.5336;;;;
2019/07/27 13:01:03;;;;;;;53.2;6.2;;;;;;;21.73;68.51074;927.741;;;;
2019/07/27 13:04:26;;;;;;;12.8;4.9;;;;;;;21.11;72.11035;927.9573;;;;
2019/07/27 13:07:42;;;;;;;18.2;6.2;;;;;;;21.11;72.5918;928.0689;;;;
2019/07/27 13:10:57;;;;;;;20.9;7.3;;;;;;;20.98;73.35254;927.9562;;;;
2019/07/27 13:14:17;;;;;;;19.3;7.5;;;;;;;20.93;78.11426;927.6912;;;;
2019/07/27 13:17:31;;;;;;;19.1;7.7;;;;;;;20.85;80.04004;927.5747;;;;
2019/07/27 13:20:50;;;;;;;139.5;11.5;;;;;;;21.02;79.32324;927.4919;;;;
2019/07/27 13:24:11;;;;;;;22.3;6.6;;;;;;;21.06;75.48145;927.7234;;;;
2019/07/27 13:27:33;;;;;;;12.7;6;;;;;;;20.82;79.41602;927.7902;;;;
2019/07/27 13:30:49;;;;;;;11;5.8;;;;;;;20.71;79.43164;927.6511;;;;
2019/07/27 13:34:05;;;;;;;11.9;6.1;;;;;;;20.92;79.28125;927.3738;;;;
2019/07/27 13:37:24;;;;;;;74.3;11.7;;;;;;;20.99;81.17773;927.2545;;;;
2019/07/27 13:40:40;;;;;;;19.5;6.3;;;;;;;20.75;78.92383;927.0717;;;;
2019/07/27 13:43:59;;;;;;;15;6.7;;;;;;;20.86;79.9502;927.1102;;;;
2019/07/27 13:47:15;;;;;;;13.6;8.9;;;;;;;20.6;80.09961;927.1376;;;;
2019/07/27 13:50:32;;;;;;;23.6;16;;;;;;;20.61;81.42188;927.0497;;;;
2019/07/27 13:53:48;;;;;;;18;11.1;;;;;;;20.96;81.1709;927.052;;;;
2019/07/27 13:57:04;;;;;;;12.7;5.8;;;;;;;21.06;79.8457;927.006;;;;
2019/07/27 14:00:18;;;;;;;11.3;5.7;;;;;;;21.01;79.8457;926.9025;;;;
2019/07/27 14:03:45;;;;;;;11.1;5.4;;;;;;;21.12;78.08887;926.933;;;;
2019/07/27 14:07:02;;;;;;;10.7;5.3;;;;;;;21.18;78.54492;926.8497;;;;
2019/07/27 14:10:24;;;;;;;10.8;5.6;;;;;;;21.35;79.93066;926.6906;;;;
2019/07/27 14:13:47;;;;;;;9.2;4.8;;;;;;;21.17;74.14453;926.6358;;;;
2019/07/27 14:17:03;;;;;;;59.9;10.2;;;;;;;21.2;75.97559;926.6259;;;;
2019/07/27 14:24:07;;;;;;;13.4;5.3;;;;;;;21.41;76.77051;926.5255;;;;
2019/07/27 14:27:22;;;;;;;12.3;4.6;;;;;;;21.35;72.4541;926.4651;;;;
2019/07/27 14:30:44;;;;;;;8.4;3.7;;;;;;;21.26;71.30469;926.3759;;;;
2019/07/27 14:34:01;;;;;;;10.8;3.9;;;;;;;21.42;69.64355;926.3378;;;;
2019/07/27 14:37:19;;;;;;;6.1;3.5;;;;;;;21.78;70.11035;926.2427;;;;
2019/07/27 14:40:35;;;;;;;5.2;3.2;;;;;;;21.87;69.77344;926.1986;;;;
2019/07/27 14:43:51;;;;;;;6.5;3.4;;;;;;;22.3;72.16406;926.1038;;;;
2019/07/27 14:47:11;;;;;;;6.7;3.7;;;;;;;22.57;71.75;926.0997;;;;
2019/07/27 14:50:25;;;;;;;6.4;3.7;;;;;;;22.57;70.78613;926.0698;;;;
2019/07/27 14:53:41;;;;;;;7;4.2;;;;;;;22.81;72.55273;926.0952;;;;
2019/07/27 14:56:57;;;;;;;7.8;4.6;;;;;;;23.15;67.7998;926.028;;;;
2019/07/27 15:00:19;;;;;;;7.7;4.5;;;;;;;23.12;70.32324;926.0447;;;;
2019/07/27 15:03:35;;;;;;;7.2;4.3;;;;;;;23.11;72.11914;926.0291;;;;
2019/07/27 15:06:51;;;;;;;6.4;3.5;;;;;;;23.03;66.96094;925.939;;;;
2019/07/27 15:10:09;;;;;;;5.6;3.6;;;;;;;22.95;68.01758;926.0292;;;;
2019/07/27 15:13:30;;;;;;;5.7;3.6;;;;;;;22.86;67.3457;926.0182;;;;
2019/07/27 15:16:44;;;;;;;6.2;3.9;;;;;;;22.85;66.78223;926.0195;;;;
2019/07/27 15:19:57;;;;;;;5.2;3.2;;;;;;;22.54;69.17578;925.9567;;;;
2019/07/27 15:23:14;;;;;;;5.1;3.3;;;;;;;22.4;69.71582;926.0059;;;;
2019/07/27 15:26:37;;;;;;;6.6;3.2;;;;;;;22.47;67.26367;925.986;;;;
2019/07/27 15:29:59;;;;;;;6.6;3.5;;;;;;;22.5;68.68945;925.959;;;;
2019/07/27 15:33:24;;;;;;;4.9;3.1;;;;;;;22.13;67.57617;925.9099;;;;
2019/07/27 15:36:40;;;;;;;6.7;3.4;;;;;;;22.47;68.50781;925.9172;;;;
2019/07/27 15:39:58;;;;;;;6.9;3.4;;;;;;;22.68;68.89258;925.9086;;;;
2019/07/27 15:43:16;;;;;;;6.2;3.1;;;;;;;22.47;66.4541;925.7043;;;;
2019/07/27 15:46:36;;;;;;;5.8;3.3;;;;;;;22.51;69.58105;925.7111;;;;
2019/07/27 15:49:54;;;;;;;5.9;3.1;;;;;;;22.51;69.05273;925.7332;;;;
2019/07/27 15:53:09;;;;;;;5.4;3.2;;;;;;;22.69;65.03223;925.7335;;;;
2019/07/27 15:56:31;;;;;;;7.1;3.4;;;;;;;22.97;66.28223;925.6669;;;;
2019/07/27 15:59:51;;;;;;;6.4;3.2;;;;;;;23.11;68.19531;925.5665;;;;
2019/07/27 16:03:07;;;;;;;9;3.4;;;;;;;23.13;70.59375;925.4899;;;;
2019/07/27 16:06:23;;;;;;;13.7;4.1;;;;;;;23.1;67.2998;925.495;;;;
2019/07/27 16:09:38;;;;;;;16.2;4.5;;;;;;;23.16;68.67383;925.5095;;;;
2019/07/27 16:12:58;;;;;;;9;3.4;;;;;;;23.15;69.62207;925.49;;;;
2019/07/27 16:16:12;;;;;;;7.3;3;;;;;;;23.19;69.18262;925.5356;;;;
2019/07/27 16:19:31;;;;;;;8.3;3.8;;;;;;;22.66;66.70508;925.5306;;;;
2019/07/27 16:22:51;;;;;;;4.9;3.1;;;;;;;22.45;67.60156;925.4614;;;;
2019/07/27 16:26:08;;;;;;;6.3;4.4;;;;;;;22.57;70.64648;925.4675;;;;
2019/07/27 16:29:23;;;;;;;8;4.1;;;;;;;22.58;69.06445;925.3702;;;;
2019/07/27 16:32:42;;;;;;;7.2;3.9;;;;;;;22.57;69.83691;925.4506;;;;
2019/07/27 16:35:57;;;;;;;8.3;4;;;;;;;22.56;71.66504;925.4959;;;;
2019/07/27 16:39:14;;;;;;;5.9;3.8;;;;;;;22.43;69.66309;925.4899;;;;
2019/07/27 16:42:33;;;;;;;7.2;4.1;;;;;;;21.86;70.83789;925.4308;;;;
2019/07/27 16:45:55;;;;;;;8.1;4;;;;;;;21.44;72.18652;925.3547;;;;
2019/07/27 16:49:17;;;;;;;7.5;4.2;;;;;;;21.37;72.90332;925.425;;;;
2019/07/27 16:52:31;;;;;;;6.8;4.2;;;;;;;21.44;74.01465;925.3367;;;;
2019/07/27 16:55:45;;;;;;;6.9;4;;;;;;;21.59;74.21387;925.2578;;;;
2019/07/27 16:59:06;;;;;;;7.1;4.1;;;;;;;21.86;75.7959;925.0975;;;;
2019/07/27 17:02:19;;;;;;;7.4;3.8;;;;;;;21.69;74.26758;925.0245;;;;
2019/07/27 17:05:34;;;;;;;9.5;3.5;;;;;;;21.49;74.71387;925.1298;;;;
2019/07/27 17:08:57;;;;;;;8.9;3.5;;;;;;;21.5;73.88281;925.1078;;;;
2019/07/27 17:12:19;;;;;;;5.8;3.7;;;;;;;21.55;73.9502;925.0902;;;;
2019/07/27 17:15:34;;;;;;;8.5;4.4;;;;;;;21.79;74.40137;925.1381;;;;
2019/07/27 17:18:54;;;;;;;5.8;3.7;;;;;;;21.79;70.83984;925.0435;;;;
2019/07/27 17:22:17;;;;;;;9.1;3.9;;;;;;;21.85;73.80078;925.1376;;;;
2019/07/27 17:25:38;;;;;;;4.7;3.6;;;;;;;21.89;70.16406;925.0538;;;;
2019/07/27 17:29:05;;;;;;;6.6;3.8;;;;;;;21.77;70.61328;925.0031;;;;
2019/07/27 17:32:23;;;;;;;4.6;3.5;;;;;;;21.83;71.39648;924.9508;;;;
2019/07/27 17:35:36;;;;;;;7.9;3.7;;;;;;;21.92;72.16016;924.9191;;;;
2019/07/27 17:39:04;;;;;;;8.1;4;;;;;;;21.79;71.83594;924.8918;;;;
2019/07/27 17:42:27;;;;;;;6.3;3.6;;;;;;;21.76;69.86328;924.9097;;;;
2019/07/27 17:45:47;;;;;;;6.8;3.7;;;;;;;21.9;71.91211;924.9436;;;;
2019/07/27 17:49:02;;;;;;;7.6;3.8;;;;;;;22.03;72.41309;924.9151;;;;
2019/07/27 17:52:17;;;;;;;5.2;3.8;;;;;;;22.14;75.16309;924.9915;;;;
2019/07/27 17:55:32;;;;;;;7.4;4.2;;;;;;;21.89;75.92969;924.8812;;;;
2019/07/27 17:58:51;;;;;;;9.4;4.3;;;;;;;21.78;76.74219;924.8113;;;;
2019/07/27 18:02:07;;;;;;;5.9;3.8;;;;;;;21.43;76.50586;924.7559;;;;
2019/07/27 18:05:25;;;;;;;7;4.3;;;;;;;21.37;73.12402;924.7603;;;;
2019/07/27 18:08:43;;;;;;;6.5;3.9;;;;;;;21.51;75.59473;924.7594;;;;
2019/07/27 18:12:08;;;;;;;5.6;3.5;;;;;;;21.62;71.77148;924.6735;;;;
2019/07/27 18:15:24;;;;;;;8;3.9;;;;;;;21.49;73.16699;924.6594;;;;
2019/07/27 18:18:38;;;;;;;6.8;3.3;;;;;;;21.48;73.97363;924.562;;;;
2019/07/27 18:21:58;;;;;;;6.4;3.9;;;;;;;21.5;74.12891;924.5674;;;;
2019/07/27 18:25:13;;;;;;;7.6;4;;;;;;;21.46;74.87207;924.5009;;;;
2019/07/27 18:28:31;;;;;;;7.8;4.1;;;;;;;21.25;76.40625;924.399;;;;
2019/07/27 18:31:49;;;;;;;7.9;4.4;;;;;;;21.32;76.11328;924.3491;;;;
2019/07/27 18:35:06;;;;;;;8.3;5.1;;;;;;;21.4;75.63477;924.4224;;;;
2019/07/27 18:38:32;;;;;;;9.8;5.7;;;;;;;21.19;77.71387;924.4741;;;;
2019/07/27 18:41:51;;;;;;;6.6;4.4;;;;;;;21.23;77.2207;924.4503;;;;
2019/07/27 18:45:08;;;;;;;6.9;3.9;;;;;;;21.26;76.30078;924.368;;;;
2019/07/27 18:48:28;;;;;;;8.3;4.1;;;;;;;21.13;76.80371;924.3751;;;;
2019/07/27 18:51:52;;;;;;;7;4.3;;;;;;;20.91;77.2793;924.3155;;;;
2019/07/27 18:55:15;;;;;;;10;4.3;;;;;;;20.77;77.51465;924.4444;;;;
2019/07/27 18:58:28;;;;;;;7;4.2;;;;;;;20.7;76.29688;924.4991;;;;
2019/07/27 19:01:42;;;;;;;5.6;3.6;;;;;;;20.46;74.81934;924.5411;;;;
2019/07/27 19:04:56;;;;;;;6.3;3.8;;;;;;;20.54;73.45605;924.493;;;;
2019/07/27 19:08:19;;;;;;;7.7;3.8;;;;;;;20.69;74.80078;924.4705;;;;
2019/07/27 19:11:35;;;;;;;6.2;3.7;;;;;;;20.53;74.57422;924.5731;;;;
2019/07/27 19:14:49;;;;;;;8.6;4.3;;;;;;;20.4;76.11816;924.6743;;;;
2019/07/27 19:18:04;;;;;;;5.1;3.8;;;;;;;20.25;75.2041;924.7278;;;;
2019/07/27 19:21:23;;;;;;;5.7;3.9;;;;;;;19.98;76.08008;924.713;;;;
2019/07/27 19:24:38;;;;;;;6.4;3.6;;;;;;;20.07;76.68945;924.7003;;;;
2019/07/27 19:27:54;;;;;;;6.2;4.2;;;;;;;20.3;76.16992;924.6729;;;;
2019/07/27 19:31:10;;;;;;;8.5;3.9;;;;;;;20.39;76.3252;924.6896;;;;
2019/07/27 19:34:25;;;;;;;7.8;4.1;;;;;;;20.35;77.52148;924.7383;;;;
2019/07/27 19:37:41;;;;;;;7.1;4.1;;;;;;;20.59;77.45898;924.7188;;;;
2019/07/27 19:40:57;;;;;;;6.1;4;;;;;;;20.74;76.86719;924.5916;;;;